Time;durP1;ratioP1;P1;durP2;ratioP2;P2;SDS_P1;SDS_P2;PMS_P1;PMS_P2;Temp;Humidity;BMP_temperature;BMP_pressure;BME280_temperature;BME280_humidity;BME280_pressure;Samples;Min_cycle;Max_cycle;Signal;HPM_P1;HPM_P2
2023/08/25 00:02:23;;;;;;;22.95;16.25;;;;;;;23.23;100.00;-18650.59;5009940;28;20045;-79
2023/08/25 00:04:49;;;;;;;26.23;16.40;;;;;;;23.16;100.00;-18648.97;5008340;28;20056;-78
2023/08/25 00:07:14;;;;;;;25.13;14.68;;;;;;;22.90;100.00;-18641.91;5024079;28;20056;-78
2023/08/25 00:09:39;;;;;;;24.55;15.27;;;;;;;22.77;100.00;-18638.38;5010416;28;20042;-78
2023/08/25 00:12:05;;;;;;;25.23;15.98;;;;;;;22.82;100.00;-18639.88;5010840;28;20444;-78
2023/08/25 00:14:31;;;;;;;26.63;17.20;;;;;;;22.69;100.00;-18636.34;4999968;28;20062;-78
2023/08/25 00:16:56;;;;;;;28.33;16.17;;;;;;;22.75;100.00;-18637.97;5011724;28;20092;-78
2023/08/25 00:19:21;;;;;;;26.05;15.80;;;;;;;22.74;100.00;-18637.84;5011690;28;20045;-78
2023/08/25 00:21:47;;;;;;;26.73;16.73;;;;;;;22.86;100.00;-18640.81;5006596;28;20103;-78
2023/08/25 00:24:12;;;;;;;24.05;15.65;;;;;;;22.84;100.00;-18640.28;5007453;28;20034;-78
2023/08/25 00:26:39;;;;;;;26.08;16.23;;;;;;;22.72;100.00;-18637.28;5004192;28;20445;-78
2023/08/25 00:29:05;;;;;;;23.65;16.25;;;;;;;22.73;100.00;-18637.44;5005725;28;20120;-78
2023/08/25 00:31:30;;;;;;;26.20;17.60;;;;;;;22.69;100.00;-18636.47;5007768;28;20712;-78
2023/08/25 00:33:55;;;;;;;23.67;16.90;;;;;;;22.75;100.00;-18637.97;5010020;28;20421;-78
2023/08/25 00:36:21;;;;;;;27.80;16.25;;;;;;;22.70;100.00;-18636.59;5005667;28;20038;-78
2023/08/25 00:38:47;;;;;;;28.63;16.95;;;;;;;22.68;100.00;-18636.19;5008685;28;20045;-79
2023/08/25 00:41:12;;;;;;;28.05;17.92;;;;;;;22.77;100.00;-18638.38;5008666;28;20554;-78
2023/08/25 00:43:39;;;;;;;25.45;16.38;;;;;;;22.60;100.00;-18633.91;5008227;28;20120;-78
2023/08/25 00:46:04;;;;;;;27.33;16.75;;;;;;;22.58;100.00;-18633.50;5004347;28;20429;-78
2023/08/25 00:48:30;;;;;;;25.63;16.63;;;;;;;22.59;100.00;-18633.63;5006206;28;20046;-78
2023/08/25 00:50:56;;;;;;;25.20;16.85;;;;;;;22.53;100.00;-18632.13;5006910;28;20061;-78
2023/08/25 00:53:22;;;;;;;29.00;17.15;;;;;;;22.57;100.00;-18633.22;5009984;28;20104;-78
2023/08/25 00:55:49;;;;;;;28.50;18.60;;;;;;;22.53;100.00;-18632.28;5006276;28;20076;-78
2023/08/25 00:58:16;;;;;;;30.60;18.48;;;;;;;22.55;100.00;-18632.53;5009129;28;20441;-78
2023/08/25 01:00:44;;;;;;;30.13;18.67;;;;;;;22.65;100.00;-18635.38;5004693;28;20038;-78
2023/08/25 01:03:09;;;;;;;27.77;19.58;;;;;;;22.62;100.00;-18634.56;5004855;28;20046;-78
2023/08/25 01:05:35;;;;;;;34.28;20.38;;;;;;;22.67;100.00;-18635.94;5006850;28;20136;-78
2023/08/25 01:08:00;;;;;;;29.85;19.42;;;;;;;22.64;100.00;-18634.97;5005143;28;20383;-78
2023/08/25 01:10:35;;;;;;;30.23;19.38;;;;;;;22.51;100.00;-18631.72;5009611;28;20084;-78
2023/08/25 01:13:18;;;;;;;31.73;19.58;;;;;;;22.42;100.00;-18629.16;5008076;28;20037;-78
2023/08/25 01:15:45;;;;;;;28.85;19.50;;;;;;;22.47;100.00;-18630.63;5011759;28;20523;-78
2023/08/25 01:18:22;;;;;;;35.25;22.15;;;;;;;22.44;100.00;-18629.69;5013215;28;20038;-78
2023/08/25 01:20:48;;;;;;;31.40;20.25;;;;;;;22.37;100.00;-18627.78;5007841;28;20042;-78
2023/08/25 01:23:27;;;;;;;35.17;21.00;;;;;;;22.42;100.00;-18629.16;5011525;28;20104;-78
2023/08/25 01:25:53;;;;;;;;;;;;;;;22.48;100.00;-18630.78;5012910;28;20038;-78
2023/08/25 01:28:21;;;;;;;36.58;21.35;;;;;;;22.46;100.00;-18630.22;5013668;28;19940;-78
2023/08/25 01:30:49;;;;;;;35.97;22.48;;;;;;;22.55;100.00;-18632.66;5009155;28;20425;-78
2023/08/25 01:33:15;;;;;;;36.47;23.95;;;;;;;22.51;100.00;-18631.72;5012832;28;20042;-78
2023/08/25 01:36:06;;;;;;;36.88;22.15;;;;;;;22.34;100.00;-18626.97;5010960;28;20042;-78
2023/08/25 01:38:51;;;;;;;38.05;22.23;;;;;;;22.31;100.00;-18626.28;5010615;28;20080;-78
2023/08/25 01:41:23;;;;;;;39.38;23.48;;;;;;;22.32;100.00;-18626.56;5009476;28;20060;-78
2023/08/25 01:43:51;;;;;;;39.67;23.13;;;;;;;22.35;100.00;-18627.38;5012478;28;20366;-78
2023/08/25 01:46:18;;;;;;;37.28;22.70;;;;;;;22.34;100.00;-18626.97;5007246;28;20050;-78
2023/08/25 01:48:46;;;;;;;36.92;22.13;;;;;;;22.30;100.00;-18626.03;5012111;28;20664;-78
2023/08/25 01:51:14;;;;;;;39.92;23.60;;;;;;;22.32;100.00;-18626.44;5012915;28;20030;-78
2023/08/25 01:53:41;;;;;;;38.65;25.13;;;;;;;22.45;100.00;-18629.97;5019563;28;20057;-78
2023/08/25 01:56:07;;;;;;;35.60;23.02;;;;;;;22.45;100.00;-18630.09;5008077;28;20046;-78
2023/08/25 01:58:32;;;;;;;37.70;22.48;;;;;;;22.37;100.00;-18627.78;5013684;28;20053;-78
2023/08/25 02:00:57;;;;;;;39.47;24.05;;;;;;;22.47;100.00;-18630.63;5008402;28;20030;-78
2023/08/25 02:03:23;;;;;;;37.70;22.77;;;;;;;22.39;100.00;-18628.47;5011513;28;20076;-79
2023/08/25 02:05:48;;;;;;;42.22;25.45;;;;;;;22.37;100.00;-18627.78;5008504;28;20092;-78
2023/08/25 02:08:13;;;;;;;39.58;23.80;;;;;;;22.29;100.00;-18625.88;5009144;28;20045;-79
2023/08/25 02:10:39;;;;;;;39.15;23.45;;;;;;;22.29;100.00;-18625.88;5018767;28;20083;-78
2023/08/25 02:13:04;;;;;;;41.22;25.42;;;;;;;22.27;100.00;-18625.22;5008384;28;20045;-78
2023/08/25 02:15:29;;;;;;;41.13;25.20;;;;;;;22.20;100.00;-18623.44;5011479;28;20430;-78
2023/08/25 02:17:55;;;;;;;42.22;25.05;;;;;;;22.21;100.00;-18623.72;5023106;28;20038;-79
2023/08/25 02:20:20;;;;;;;40.90;25.38;;;;;;;22.19;100.00;-18623.16;5009604;28;20046;-79
2023/08/25 02:22:46;;;;;;;41.00;25.13;;;;;;;22.30;100.00;-18626.03;5013226;28;20108;-78
2023/08/25 02:25:11;;;;;;;43.05;25.83;;;;;;;22.19;100.00;-18623.03;5005955;28;20061;-79
2023/08/25 02:27:36;;;;;;;43.28;26.27;;;;;;;22.24;100.00;-18624.53;5011128;28;20560;-79
2023/08/25 02:30:03;;;;;;;44.85;26.88;;;;;;;22.40;100.00;-18628.75;5016362;28;20130;-79
2023/08/25 02:32:28;;;;;;;41.80;25.25;;;;;;;22.11;100.00;-18621.00;5011440;28;20038;-78
2023/08/25 02:34:54;;;;;;;44.40;26.45;;;;;;;22.12;100.00;-18621.13;5009663;28;20855;-79
2023/08/25 02:37:19;;;;;;;48.65;26.55;;;;;;;22.05;100.00;-18619.50;5008940;28;20034;-78
2023/08/25 02:39:44;;;;;;;46.88;29.15;;;;;;;21.98;100.00;-18617.59;5007930;28;20048;-78
2023/08/25 02:42:10;;;;;;;46.63;28.27;;;;;;;22.12;100.00;-18621.25;5006374;28;20037;-78
2023/08/25 02:44:35;;;;;;;40.58;25.33;;;;;;;22.19;100.00;-18623.16;5013729;28;20041;-78
2023/08/25 02:47:00;;;;;;;45.28;28.92;;;;;;;22.05;100.00;-18619.38;5010874;28;20529;-78
2023/08/25 02:49:26;;;;;;;46.97;26.95;;;;;;;22.00;100.00;-18618.13;5012911;28;20053;-78
2023/08/25 02:51:51;;;;;;;43.95;25.25;;;;;;;21.99;100.00;-18617.72;5012984;28;20046;-79
2023/08/25 02:54:16;;;;;;;43.25;25.65;;;;;;;21.98;100.00;-18617.59;5012570;28;20041;-79
2023/08/25 02:56:42;;;;;;;46.72;28.23;;;;;;;22.10;100.00;-18620.72;5011431;28;20050;-78
2023/08/25 02:59:07;;;;;;;42.72;25.63;;;;;;;21.94;100.00;-18616.50;5011266;28;20339;-79
2023/08/25 03:01:33;;;;;;;44.78;26.23;;;;;;;21.93;100.00;-18616.09;5016076;28;20037;-79
2023/08/25 03:03:58;;;;;;;48.15;27.80;;;;;;;21.84;100.00;-18613.94;5016689;28;20036;-78
2023/08/25 03:06:24;;;;;;;49.28;28.48;;;;;;;21.98;100.00;-18617.47;5012945;28;20483;-78
2023/08/25 03:08:49;;;;;;;45.22;27.00;;;;;;;21.93;100.00;-18616.09;5010031;28;20041;-78
2023/08/25 03:11:14;;;;;;;47.35;27.35;;;;;;;21.91;100.00;-18615.56;5017467;28;20132;-78
2023/08/25 03:13:40;;;;;;;45.55;26.92;;;;;;;21.75;100.00;-18611.47;5007946;28;20042;-77
2023/08/25 03:16:07;;;;;;;42.90;25.45;;;;;;;21.59;100.00;-18607.28;5011835;28;20125;-78
2023/08/25 03:18:33;;;;;;;41.85;25.85;;;;;;;21.63;100.00;-18608.34;5012549;28;20580;-78
2023/08/25 03:20:58;;;;;;;42.47;25.58;;;;;;;21.51;100.00;-18604.97;5006225;28;20053;-78
2023/08/25 03:23:24;;;;;;;41.75;24.92;;;;;;;21.50;100.00;-18604.69;5012656;28;20034;-78
2023/08/25 03:25:49;;;;;;;47.78;27.17;;;;;;;21.55;100.00;-18606.03;5010811;28;20107;-78
2023/08/25 03:28:14;;;;;;;51.40;29.60;;;;;;;21.76;100.00;-18611.75;5008494;28;20533;-78
2023/08/25 03:30:40;;;;;;;49.47;29.65;;;;;;;21.83;100.00;-18613.53;5019165;28;20121;-78
2023/08/25 03:33:05;;;;;;;46.42;27.83;;;;;;;21.83;100.00;-18613.53;5006318;28;20030;-78
2023/08/25 03:35:35;;;;;;;47.20;27.40;;;;;;;21.97;100.00;-18617.31;5011375;28;20042;-78
2023/08/25 03:38:00;;;;;;;45.00;27.92;;;;;;;21.89;100.00;-18615.00;5006650;28;20049;-78
2023/08/25 03:40:25;;;;;;;44.10;25.98;;;;;;;21.98;100.00;-18617.47;5025730;28;20681;-78
2023/08/25 03:42:51;;;;;;;43.13;25.30;;;;;;;22.05;100.00;-18619.50;5011808;28;20408;-78
2023/08/25 03:45:16;;;;;;;40.63;25.58;;;;;;;22.18;100.00;-18622.75;5008745;28;20049;-79
2023/08/25 03:47:42;;;;;;;44.45;25.45;;;;;;;22.11;100.00;-18620.84;5020249;28;20564;-78
2023/08/25 03:50:07;;;;;;;44.80;24.77;;;;;;;22.24;100.00;-18624.53;5016345;28;20134;-78
2023/08/25 03:52:33;;;;;;;41.78;25.10;;;;;;;22.05;100.00;-18619.38;5011149;28;20073;-78
2023/08/25 03:54:58;;;;;;;42.78;27.02;;;;;;;22.00;100.00;-18618.13;5011490;28;20052;-78
2023/08/25 03:57:23;;;;;;;41.72;24.88;;;;;;;21.91;100.00;-18615.56;5006472;28;20046;-78
2023/08/25 03:59:49;;;;;;;42.05;26.17;;;;;;;21.95;100.00;-18616.66;5012365;28;20128;-78
2023/08/25 04:02:14;;;;;;;45.00;25.08;;;;;;;21.95;100.00;-18616.66;5012040;28;20069;-79
2023/08/25 04:04:39;;;;;;;44.70;26.42;;;;;;;22.06;100.00;-18619.63;5012459;28;20042;-78
2023/08/25 04:07:05;;;;;;;48.45;26.45;;;;;;;22.02;100.00;-18618.69;5010895;28;20041;-79
2023/08/25 04:09:30;;;;;;;47.95;26.92;;;;;;;22.07;100.00;-18619.91;5009399;28;20061;-78
2023/08/25 04:11:56;;;;;;;46.78;26.58;;;;;;;22.02;100.00;-18618.69;5012388;28;20575;-79
2023/08/25 04:14:21;;;;;;;48.38;28.48;;;;;;;22.02;100.00;-18618.53;5012850;28;20038;-79
2023/08/25 04:16:46;;;;;;;49.03;28.67;;;;;;;22.03;100.00;-18618.94;5033473;28;20044;-79
2023/08/25 04:19:16;;;;;;;47.08;26.40;;;;;;;22.00;100.00;-18618.00;5013549;28;20037;-79
2023/08/25 04:21:42;;;;;;;48.53;26.63;;;;;;;22.07;100.00;-18620.03;5011350;28;20052;-78
2023/08/25 04:24:07;;;;;;;50.78;28.80;;;;;;;22.02;100.00;-18618.53;5005652;28;20133;-78
2023/08/25 04:26:32;;;;;;;49.33;27.75;;;;;;;21.89;100.00;-18615.00;5012414;28;20042;-79
2023/08/25 04:28:58;;;;;;;44.85;25.35;;;;;;;21.82;100.00;-18613.25;5010217;28;20053;-80
2023/08/25 04:31:23;;;;;;;49.33;26.63;;;;;;;21.83;100.00;-18613.66;5008719;28;20045;-78
2023/08/25 04:33:48;;;;;;;45.38;24.35;;;;;;;21.82;100.00;-18613.25;5008673;28;20048;-78
2023/08/25 04:36:14;;;;;;;44.60;26.25;;;;;;;21.95;100.00;-18616.66;5004874;28;20034;-77
2023/08/25 04:38:39;;;;;;;49.28;27.67;;;;;;;21.88;100.00;-18614.88;5013609;28;20034;-78
2023/08/25 04:41:04;;;;;;;49.97;27.20;;;;;;;22.00;100.00;-18618.13;5019629;28;20037;-77
2023/08/25 04:43:30;;;;;;;45.10;26.25;;;;;;;22.02;100.00;-18618.53;5012726;28;20038;-78
2023/08/25 04:45:55;;;;;;;46.53;27.02;;;;;;;21.96;100.00;-18617.06;5022015;28;20042;-77
2023/08/25 04:48:22;;;;;;;47.35;27.23;;;;;;;21.90;100.00;-18615.28;5016848;28;20097;-78
2023/08/25 04:50:48;;;;;;;45.88;26.52;;;;;;;21.96;100.00;-18617.06;5016497;28;20045;-78
2023/08/25 04:53:13;;;;;;;44.58;25.85;;;;;;;22.01;100.00;-18618.28;5018900;28;20105;-77
2023/08/25 04:55:39;;;;;;;40.25;24.27;;;;;;;21.97;100.00;-18617.31;5016326;28;20049;-79
2023/08/25 04:58:04;;;;;;;41.20;24.50;;;;;;;21.95;100.00;-18616.66;5009393;28;20048;-78
2023/08/25 05:00:30;;;;;;;42.70;25.50;;;;;;;21.82;100.00;-18613.38;5009846;28;20173;-78
2023/08/25 05:02:55;;;;;;;47.90;26.80;;;;;;;21.83;100.00;-18613.66;5010593;28;20245;-78
2023/08/25 05:05:20;;;;;;;49.67;27.92;;;;;;;21.84;100.00;-18613.94;5005550;28;20782;-78
2023/08/25 05:07:46;;;;;;;48.72;27.63;;;;;;;21.85;100.00;-18614.19;5008121;28;20074;-78
2023/08/25 05:10:11;;;;;;;51.38;27.65;;;;;;;21.83;100.00;-18613.53;5008297;28;20046;-78
2023/08/25 05:12:39;;;;;;;57.53;29.15;;;;;;;21.88;100.00;-18614.75;5009103;28;20121;-78
2023/08/25 05:15:05;;;;;;;55.38;29.30;;;;;;;21.99;100.00;-18617.72;5003584;28;20037;-78
2023/08/25 05:17:30;;;;;;;52.28;28.92;;;;;;;21.92;100.00;-18615.81;5009902;28;20050;-78
2023/08/25 05:19:55;;;;;;;51.30;29.50;;;;;;;21.99;100.00;-18617.72;5009539;28;20057;-78
2023/08/25 05:22:21;;;;;;;58.20;30.27;;;;;;;22.10;100.00;-18620.72;5007644;28;23286;-78
2023/08/25 05:24:46;;;;;;;51.58;30.92;;;;;;;22.03;100.00;-18618.81;5004309;28;20096;-78
2023/08/25 05:27:11;;;;;;;48.67;29.02;;;;;;;21.96;100.00;-18616.91;5027841;28;20035;-78
2023/08/25 05:29:37;;;;;;;51.42;29.60;;;;;;;21.85;100.00;-18614.19;5013451;28;20057;-78
2023/08/25 05:32:03;;;;;;;54.03;30.50;;;;;;;21.98;100.00;-18617.47;5009934;28;20045;-78
2023/08/25 05:34:28;;;;;;;56.65;30.63;;;;;;;22.00;100.00;-18618.13;5013459;28;20095;-77
2023/08/25 05:36:54;;;;;;;52.08;28.42;;;;;;;22.05;100.00;-18619.50;5010414;28;20089;-77
2023/08/25 05:39:21;;;;;;;52.75;29.10;;;;;;;22.09;100.00;-18620.44;5007071;28;20209;-78
2023/08/25 05:41:46;;;;;;;52.55;28.95;;;;;;;22.06;100.00;-18619.63;5006486;28;20117;-77
2023/08/25 05:44:12;;;;;;;52.55;29.98;;;;;;;22.13;100.00;-18621.53;5003130;28;20050;-78
2023/08/25 05:46:39;;;;;;;56.60;29.95;;;;;;;22.14;100.00;-18621.66;5006042;28;20076;-77
2023/08/25 05:49:04;;;;;;;59.28;30.38;;;;;;;22.09;100.00;-18620.59;5005342;28;20084;-78
2023/08/25 05:51:30;;;;;;;57.22;30.90;;;;;;;22.10;100.00;-18620.72;5006495;28;20140;-77
2023/08/25 05:53:56;;;;;;;53.67;30.88;;;;;;;22.11;100.00;-18621.00;5005480;28;20046;-77
2023/08/25 05:56:21;;;;;;;54.03;29.48;;;;;;;22.12;100.00;-18621.25;5004508;28;20058;-78
2023/08/25 05:58:47;;;;;;;56.60;31.48;;;;;;;22.18;100.00;-18622.91;5004663;28;20041;-77
2023/08/25 06:01:12;;;;;;;60.05;32.25;;;;;;;22.20;100.00;-18623.31;5004919;28;20041;-77
2023/08/25 06:03:38;;;;;;;58.42;33.38;;;;;;;22.32;100.00;-18626.44;5008935;28;20449;-77
2023/08/25 06:06:04;;;;;;;60.78;32.20;;;;;;;22.38;100.00;-18628.06;5005384;28;20042;-77
2023/08/25 06:08:30;;;;;;;56.67;31.25;;;;;;;22.37;100.00;-18627.78;5006015;28;20050;-76
2023/08/25 06:10:56;;;;;;;55.22;31.83;;;;;;;22.49;100.00;-18631.19;5003219;28;20073;-76
2023/08/25 06:13:22;;;;;;;59.50;34.45;;;;;;;22.50;100.00;-18631.44;5002411;28;20058;-77
2023/08/25 06:15:48;;;;;;;61.13;32.45;;;;;;;22.44;100.00;-18629.69;5002485;28;20594;-76
2023/08/25 06:18:14;;;;;;;59.92;32.85;;;;;;;22.50;100.00;-18631.31;5008555;28;20038;-77
2023/08/25 06:20:40;;;;;;;61.75;36.30;;;;;;;22.73;100.00;-18637.56;5005783;28;20034;-77
2023/08/25 06:23:06;;;;;;;58.72;31.92;;;;;;;22.78;100.00;-18638.66;5005961;28;20462;-77
2023/08/25 06:25:31;;;;;;;58.40;32.95;;;;;;;22.82;100.00;-18639.88;5007103;28;20045;-77
2023/08/25 06:27:57;;;;;;;62.55;35.42;;;;;;;22.90;100.00;-18642.03;5004677;28;20561;-77
2023/08/25 06:30:23;;;;;;;62.72;35.20;;;;;;;22.96;100.00;-18643.53;5009543;28;20585;-77
2023/08/25 06:32:49;;;;;;;60.95;34.78;;;;;;;23.00;100.00;-18644.50;5008449;28;20038;-77
2023/08/25 06:35:15;;;;;;;59.38;33.78;;;;;;;22.83;100.00;-18640.13;5007218;28;20036;-77
2023/08/25 06:37:40;;;;;;;63.38;34.25;;;;;;;22.90;100.00;-18641.91;5005081;28;20120;-77
2023/08/25 06:40:07;;;;;;;60.70;34.17;;;;;;;22.96;100.00;-18643.53;5006150;28;20113;-77
2023/08/25 06:42:33;;;;;;;64.18;35.13;;;;;;;22.97;100.00;-18643.81;5007626;28;20038;-77
2023/08/25 06:44:59;;;;;;;59.08;35.53;;;;;;;23.06;100.00;-18646.25;5004921;28;20107;-77
2023/08/25 06:47:24;;;;;;;58.95;34.30;;;;;;;23.08;100.00;-18646.66;5007135;28;20046;-77
2023/08/25 06:49:50;;;;;;;61.40;34.60;;;;;;;23.12;100.00;-18647.88;5008749;28;20132;-77
2023/08/25 06:52:15;;;;;;;59.80;33.72;;;;;;;23.18;100.00;-18649.38;5006378;28;20671;-77
2023/08/25 06:54:40;;;;;;;57.88;34.00;;;;;;;23.40;100.00;-18655.22;5017439;28;20501;-77
2023/08/25 06:57:07;;;;;;;60.95;33.90;;;;;;;23.64;100.00;-18661.56;5002596;28;22189;-77
2023/08/25 06:59:34;;;;;;;59.13;33.25;;;;;;;23.76;100.00;-18664.84;5009160;28;20029;-77
2023/08/25 07:02:00;;;;;;;55.78;32.25;;;;;;;23.74;100.00;-18664.16;5006535;28;20038;-77
2023/08/25 07:04:25;;;;;;;54.63;30.58;;;;;;;23.73;100.00;-18663.88;5005565;28;20080;-77
2023/08/25 07:06:51;;;;;;;48.70;28.88;;;;;;;23.58;100.00;-18660.09;5005419;28;20077;-77
2023/08/25 07:09:17;;;;;;;49.20;31.55;;;;;;;23.60;100.00;-18660.50;5008293;28;20141;-77
2023/08/25 07:11:43;;;;;;;46.03;27.40;;;;;;;23.75;100.00;-18664.56;5006583;28;20395;-77
2023/08/25 07:14:09;;;;;;;44.83;28.08;;;;;;;23.94;100.00;-18669.59;5006024;28;20049;-77
2023/08/25 07:16:34;;;;;;;45.17;27.73;;;;;;;24.04;100.00;-18672.28;5006596;28;20109;-77
2023/08/25 07:18:59;;;;;;;44.97;27.10;;;;;;;23.85;100.00;-18667.28;5004845;28;20049;-77
2023/08/25 07:21:25;;;;;;;44.17;27.40;;;;;;;24.01;100.00;-18671.34;5007891;28;20601;-77
2023/08/25 07:23:50;;;;;;;44.78;28.88;;;;;;;24.10;100.00;-18673.91;5006575;28;20042;-77
2023/08/25 07:26:16;;;;;;;44.45;29.48;;;;;;;24.09;100.00;-18673.50;5004379;28;20034;-77
2023/08/25 07:28:41;;;;;;;45.40;28.52;;;;;;;24.14;100.00;-18674.72;5006155;28;20073;-77
2023/08/25 07:31:07;;;;;;;42.50;27.73;;;;;;;23.75;100.00;-18664.56;5004177;28;20038;-77
2023/08/25 07:33:32;;;;;;;45.67;28.77;;;;;;;23.87;100.00;-18667.69;5002398;28;20037;-77
2023/08/25 07:35:58;;;;;;;46.55;28.85;;;;;;;23.85;100.00;-18667.13;5006948;28;20497;-77
2023/08/25 07:38:24;;;;;;;44.28;28.90;;;;;;;23.96;100.00;-18670.13;5003813;28;20088;-77
2023/08/25 07:40:50;;;;;;;45.47;27.92;;;;;;;23.97;100.00;-18670.41;5002900;28;20133;-77
2023/08/25 07:43:15;;;;;;;47.70;29.15;;;;;;;23.88;100.00;-18667.97;5006128;28;20117;-77
2023/08/25 07:45:41;;;;;;;43.38;25.75;;;;;;;23.90;100.00;-18668.38;5001965;28;20076;-77
2023/08/25 07:48:06;;;;;;;46.33;28.17;;;;;;;23.94;100.00;-18669.44;5002347;28;20041;-77
2023/08/25 07:50:32;;;;;;;50.08;27.90;;;;;;;23.93;100.00;-18669.31;5003714;28;20040;-77
2023/08/25 07:52:57;;;;;;;45.13;28.35;;;;;;;23.97;100.00;-18670.41;5004665;28;20038;-77
2023/08/25 07:55:24;;;;;;;48.40;29.38;;;;;;;24.09;100.00;-18673.50;5005879;28;20100;-77
2023/08/25 07:57:50;;;;;;;46.60;29.55;;;;;;;24.13;100.00;-18674.47;5005988;28;20087;-77
2023/08/25 08:00:17;;;;;;;49.40;30.88;;;;;;;23.89;100.00;-18668.22;5002653;28;20038;-77
2023/08/25 08:02:43;;;;;;;45.95;26.92;;;;;;;23.90;100.00;-18668.50;5006587;28;20378;-77
2023/08/25 08:05:09;;;;;;;48.42;30.00;;;;;;;23.89;100.00;-18668.22;5018762;28;20045;-78
2023/08/25 08:07:35;;;;;;;48.22;29.48;;;;;;;23.99;100.00;-18670.94;5008154;28;20083;-78
2023/08/25 08:10:01;;;;;;;49.05;28.48;;;;;;;23.99;100.00;-18670.94;5008269;28;20058;-78
2023/08/25 08:12:26;;;;;;;50.22;29.30;;;;;;;24.04;100.00;-18672.28;5009792;28;20092;-78
2023/08/25 08:14:52;;;;;;;50.10;29.35;;;;;;;24.08;100.00;-18673.38;5007464;28;20026;-78
2023/08/25 08:17:19;;;;;;;47.63;28.95;;;;;;;24.09;100.00;-18673.50;5003968;28;20700;-78
2023/08/25 08:19:44;;;;;;;45.97;29.60;;;;;;;24.16;100.00;-18675.28;5009029;28;20049;-78
2023/08/25 08:22:10;;;;;;;50.45;31.48;;;;;;;24.07;100.00;-18673.09;5003947;28;20045;-78
2023/08/25 08:24:36;;;;;;;54.20;32.28;;;;;;;24.22;100.00;-18677.03;5009790;28;20046;-78
2023/08/25 08:27:02;;;;;;;48.75;27.88;;;;;;;24.22;100.00;-18676.91;5005959;28;20033;-78
2023/08/25 08:29:27;;;;;;;46.42;27.42;;;;;;;24.27;100.00;-18678.25;5006574;28;20073;-78
2023/08/25 08:31:55;;;;;;;51.38;27.92;;;;;;;24.32;100.00;-18679.59;5005726;28;20065;-78
2023/08/25 08:34:21;;;;;;;46.92;27.80;;;;;;;24.08;100.00;-18673.38;5012117;28;20509;-78
2023/08/25 08:36:47;;;;;;;51.17;28.65;;;;;;;24.16;100.00;-18675.28;5003479;28;20040;-78
2023/08/25 08:39:12;;;;;;;49.72;27.92;;;;;;;24.15;100.00;-18675.13;5002349;28;20038;-78
2023/08/25 08:41:40;;;;;;;51.10;29.02;;;;;;;24.20;100.00;-18676.50;5009191;28;20100;-78
2023/08/25 08:44:10;;;;;;;52.20;29.05;;;;;;;24.60;100.00;-18686.94;5002973;28;20095;-78
2023/08/25 08:46:36;;;;;;;48.00;28.73;;;;;;;25.10;100.00;-18700.34;5005069;28;20087;-78
2023/08/25 08:49:02;;;;;;;47.13;28.85;;;;;;;24.58;100.00;-18686.38;5009787;28;20046;-78
2023/08/25 08:51:30;;;;;;;44.28;26.13;;;;;;;24.31;100.00;-18679.47;5004887;28;20057;-78
2023/08/25 08:53:55;;;;;;;43.45;26.10;;;;;;;23.90;100.00;-18668.38;5010649;28;20568;-78
2023/08/25 08:56:22;;;;;;;45.80;24.67;;;;;;;23.85;100.00;-18667.13;5008738;28;20037;-78
2023/08/25 08:58:48;;;;;;;42.08;24.08;;;;;;;23.76;100.00;-18664.84;5003236;28;20077;-78
2023/08/25 09:01:15;;;;;;;43.40;24.92;;;;;;;23.81;100.00;-18666.06;5008153;28;20144;-78
2023/08/25 09:03:41;;;;;;;40.13;25.10;;;;;;;23.69;100.00;-18662.81;5008235;28;20038;-78
2023/08/25 09:06:07;;;;;;;39.33;22.80;;;;;;;23.94;100.00;-18669.44;5001586;28;20037;-78
2023/08/25 09:08:35;;;;;;;43.65;26.23;;;;;;;24.07;100.00;-18673.09;5002367;28;20048;-79
2023/08/25 09:11:03;;;;;;;44.35;26.80;;;;;;;24.09;100.00;-18673.66;5006791;28;20045;-79
2023/08/25 09:13:33;;;;;;;42.28;25.08;;;;;;;24.41;100.00;-18682.03;5006518;28;21142;-79
2023/08/25 09:15:59;;;;;;;44.05;26.15;;;;;;;24.57;100.00;-18686.25;5002827;28;20038;-78
2023/08/25 09:18:33;;;;;;;42.63;24.15;;;;;;;24.70;100.00;-18689.63;5005829;28;20064;-78
2023/08/25 09:21:01;;;;;;;44.50;24.40;;;;;;;23.83;100.00;-18666.59;5009050;28;20048;-79
2023/08/25 09:23:27;;;;;;;48.92;27.45;;;;;;;24.19;100.00;-18676.09;5007459;28;20049;-78
2023/08/25 09:25:53;;;;;;;43.08;25.73;;;;;;;24.45;100.00;-18683.00;5009162;28;20056;-78
2023/08/25 09:28:23;;;;;;;43.70;26.45;;;;;;;23.72;100.00;-18663.63;5011866;28;20054;-78
2023/08/25 09:30:48;;;;;;;48.83;27.33;;;;;;;23.39;100.00;-18654.94;5010074;28;20052;-78
2023/08/25 09:33:14;;;;;;;47.28;27.33;;;;;;;23.21;100.00;-18650.19;5006912;28;20034;-78
2023/08/25 09:35:40;;;;;;;46.38;25.10;;;;;;;23.13;100.00;-18648.16;5012487;28;20195;-78
2023/08/25 09:38:06;;;;;;;46.08;26.90;;;;;;;23.19;100.00;-18649.78;5011553;28;20042;-78
2023/08/25 09:40:31;;;;;;;50.35;30.02;;;;;;;23.67;100.00;-18662.25;5012094;28;20053;-78
2023/08/25 09:43:02;;;;;;;51.60;28.73;;;;;;;23.90;100.00;-18668.50;5006288;28;20053;-78
2023/08/25 09:45:29;;;;;;;48.88;27.25;;;;;;;23.56;100.00;-18659.53;5009747;28;20535;-78
2023/08/25 09:48:13;;;;;;;49.03;30.25;;;;;;;23.36;100.00;-18654.13;5011247;28;20072;-78
2023/08/25 09:50:44;;;;;;;48.85;28.80;;;;;;;23.33;100.00;-18653.31;4991478;28;20744;-78
2023/08/25 09:53:12;;;;;;;48.72;29.83;;;;;;;23.18;100.00;-18649.38;5023621;28;20577;-78
2023/08/25 09:55:39;;;;;;;45.83;29.15;;;;;;;23.22;100.00;-18650.31;5007979;28;20037;-78
2023/08/25 09:58:09;;;;;;;52.70;28.25;;;;;;;23.31;100.00;-18652.75;5027129;28;20104;-78
2023/08/25 10:00:37;;;;;;;50.80;30.02;;;;;;;23.15;100.00;-18648.69;5012005;28;20034;-78
2023/08/25 10:03:05;;;;;;;55.05;31.88;;;;;;;23.23;100.00;-18650.59;5005447;28;20413;-78
2023/08/25 10:05:34;;;;;;;53.72;32.75;;;;;;;23.07;100.00;-18646.53;5014893;28;20037;-78
2023/08/25 10:08:00;;;;;;;50.55;31.20;;;;;;;23.07;100.00;-18646.53;5006333;28;20088;-78
2023/08/25 10:10:30;;;;;;;50.75;31.30;;;;;;;23.30;100.00;-18652.50;5015323;28;20049;-78
2023/08/25 10:12:57;;;;;;;54.38;29.67;;;;;;;23.42;100.00;-18655.75;5025546;28;20042;-78
2023/08/25 10:15:24;;;;;;;52.67;31.08;;;;;;;23.59;100.00;-18660.34;5006801;28;20136;-78
2023/08/25 10:17:53;;;;;;;51.75;30.63;;;;;;;23.85;100.00;-18667.13;5010098;28;20132;-78
2023/08/25 10:20:22;;;;;;;53.35;30.27;;;;;;;23.54;100.00;-18658.88;5004387;28;20050;-78
2023/08/25 10:22:50;;;;;;;52.88;32.72;;;;;;;23.71;100.00;-18663.47;5004107;28;20042;-78
2023/08/25 10:25:17;;;;;;;57.33;35.53;;;;;;;23.76;100.00;-18664.84;5009565;28;20053;-78
2023/08/25 10:27:44;;;;;;;56.15;36.38;;;;;;;23.76;100.00;-18664.84;5004670;28;20053;-78
2023/08/25 10:30:11;;;;;;;54.80;35.92;;;;;;;23.74;100.00;-18664.28;5011723;28;20110;-78
2023/08/25 10:32:58;;;;;;;55.42;34.95;;;;;;;23.81;100.00;-18666.06;5010033;28;20041;-78
2023/08/25 10:35:53;;;;;;;58.05;36.70;;;;;;;24.18;100.00;-18675.94;5008692;28;20077;-78
2023/08/25 10:38:18;;;;;;;53.42;36.33;;;;;;;24.31;100.00;-18679.47;4996048;28;20061;-78
2023/08/25 10:40:48;;;;;;;56.70;35.97;;;;;;;23.68;100.00;-18662.66;5007977;28;20401;-78
2023/08/25 10:43:14;;;;;;;53.72;35.50;;;;;;;24.00;100.00;-18671.22;5004049;28;20034;-78
2023/08/25 10:45:39;;;;;;;55.50;36.38;;;;;;;24.03;100.00;-18671.88;5003947;28;20048;-78
2023/08/25 10:48:06;;;;;;;56.00;34.55;;;;;;;24.10;100.00;-18673.91;5005123;28;20049;-78
2023/08/25 10:50:32;;;;;;;49.50;33.35;;;;;;;24.05;100.00;-18672.56;5001268;28;20514;-78
2023/08/25 10:52:58;;;;;;;54.47;33.90;;;;;;;24.04;100.00;-18672.28;5009103;28;20073;-78
2023/08/25 10:55:32;;;;;;;51.92;31.70;;;;;;;23.82;100.00;-18666.31;5004619;28;20494;-78
2023/08/25 10:58:05;;;;;;;48.72;30.92;;;;;;;23.80;100.00;-18665.91;5011890;28;20049;-78
2023/08/25 11:00:33;;;;;;;50.67;33.28;;;;;;;23.55;100.00;-18659.13;5002906;28;20061;-78